Time;durP1;ratioP1;P1;durP2;ratioP2;P2;SDS_P1;SDS_P2;PMS_P1;PMS_P2;Temp;Humidity;BMP_temperature;BMP_pressure;BME280_temperature;BME280_humidity;BME280_pressure;Samples;Min_cycle;Max_cycle;Signal;HPM_P1;HPM_P2
2021/05/05 00:02:30;;;;;;;1.10;0.70;;;20.90;47.30;;;;;;6244008;28;20593;-76
2021/05/05 00:05:33;;;;;;;1.60;0.70;;;20.90;47.30;;;;;;6243794;28;20080;-76
2021/05/05 00:08:33;;;;;;;1.02;0.60;;;20.90;47.40;;;;;;6243521;28;20087;-76
2021/05/05 00:11:34;;;;;;;1.60;0.60;;;20.90;47.30;;;;;;6243871;28;20025;-77
2021/05/05 00:14:34;;;;;;;0.93;0.70;;;20.90;47.30;;;;;;6244126;28;20480;-76
2021/05/05 00:17:35;;;;;;;2.03;0.73;;;20.90;47.30;;;;;;6242277;28;20044;-76
2021/05/05 00:20:36;;;;;;;1.95;0.63;;;20.90;48.10;;;;;;6243906;28;20017;-76
2021/05/05 00:23:37;;;;;;;1.20;0.60;;;20.90;47.30;;;;;;6243865;28;20094;-77
2021/05/05 00:26:38;;;;;;;0.75;0.50;;;20.90;47.30;;;;;;6242196;28;20029;-76
2021/05/05 00:29:39;;;;;;;0.43;0.43;;;20.90;47.30;;;;;;6243667;28;20022;-76
2021/05/05 00:32:39;;;;;;;0.98;0.63;;;20.90;47.30;;;;;;6243817;28;20028;-77
2021/05/05 00:35:40;;;;;;;0.80;0.60;;;20.90;47.30;;;;;;6243595;28;20057;-76
2021/05/05 00:38:40;;;;;;;0.60;0.32;;;20.90;47.30;;;;;;6243307;28;20456;-76
2021/05/05 00:41:41;;;;;;;1.27;0.57;;;20.90;47.30;;;;;;6243724;28;20022;-76
2021/05/05 00:44:43;;;;;;;1.45;0.63;;;20.90;47.30;;;;;;6243720;28;20092;-76
2021/05/05 00:47:44;;;;;;;0.60;0.55;;;20.90;47.40;;;;;;6243595;28;20021;-77
2021/05/05 00:50:44;;;;;;;0.65;0.50;;;20.90;47.40;;;;;;6242209;28;20037;-77
2021/05/05 00:53:45;;;;;;;0.70;0.60;;;20.90;47.40;;;;;;6244469;28;20475;-76
2021/05/05 00:56:46;;;;;;;1.05;0.60;;;20.90;47.40;;;;;;6247704;28;20026;-76
2021/05/05 00:59:48;;;;;;;0.50;0.50;;;20.90;47.40;;;;;;6248336;28;20018;-76
2021/05/05 01:02:49;;;;;;;0.60;0.50;;;20.90;47.60;;;;;;6247672;28;20029;-77
2021/05/05 01:05:50;;;;;;;0.98;0.60;;;20.90;47.40;;;;;;6248030;28;20041;-76
2021/05/05 01:08:51;;;;;;;0.77;0.50;;;20.90;47.40;;;;;;6248293;28;20021;-77
2021/05/05 01:11:53;;;;;;;0.47;0.40;;;20.90;47.40;;;;;;6247926;28;20302;-76
2021/05/05 01:14:54;;;;;;;1.75;0.70;;;20.90;47.40;;;;;;6192936;28;20072;-76
2021/05/05 01:17:55;;;;;;;0.75;0.47;;;20.90;47.40;;;;;;6195697;28;20038;-75
2021/05/05 01:21:00;;;;;;;1.17;0.60;;;20.90;47.40;;;;;;6195701;28;20385;-76
2021/05/05 01:24:02;;;;;;;0.63;0.45;;;20.90;47.40;;;;;;6195178;28;20133;-76
2021/05/05 01:27:07;;;;;;;0.32;0.30;;;20.90;47.40;;;;;;6193059;28;20512;-76
2021/05/05 01:30:09;;;;;;;0.65;0.50;;;20.90;47.40;;;;;;6178956;28;20033;-76
2021/05/05 01:33:10;;;;;;;3.10;0.60;;;20.90;47.40;;;;;;6195694;28;20027;-76
2021/05/05 01:36:14;;;;;;;1.08;0.50;;;20.90;47.40;;;;;;6196381;28;20081;-76
2021/05/05 01:39:16;;;;;;;0.47;0.45;;;20.90;47.40;;;;;;6192484;28;20356;-76
2021/05/05 01:42:17;;;;;;;0.55;0.35;;;20.90;47.40;;;;;;6188716;28;20030;-76
2021/05/05 01:45:18;;;;;;;0.75;0.30;;;20.90;47.40;;;;;;6214898;28;20045;-76
2021/05/05 01:48:19;;;;;;;1.13;0.70;;;20.90;47.40;;;;;;6245060;28;20029;-77
2021/05/05 01:51:20;;;;;;;0.77;0.60;;;20.90;47.40;;;;;;6245310;28;20044;-76
2021/05/05 01:54:24;;;;;;;1.70;0.68;;;20.90;47.50;;;;;;6245335;28;20124;-76
2021/05/05 01:57:31;;;;;;;0.63;0.47;;;20.90;47.40;;;;;;6246633;28;20037;-76
2021/05/05 02:00:32;;;;;;;0.73;0.40;;;20.90;47.40;;;;;;6247258;28;20025;-76
2021/05/05 02:03:32;;;;;;;0.35;0.30;;;20.90;47.40;;;;;;6246452;28;20515;-76
2021/05/05 02:06:33;;;;;;;0.57;0.40;;;20.90;47.50;;;;;;6244072;28;20025;-76
2021/05/05 02:09:34;;;;;;;1.10;0.60;;;20.90;47.40;;;;;;6246147;28;20026;-76
2021/05/05 02:12:35;;;;;;;0.50;0.35;;;20.90;47.40;;;;;;6244889;28;20030;-76
2021/05/05 02:15:35;;;;;;;0.93;0.40;;;20.90;47.40;;;;;;6245935;28;20049;-76
2021/05/05 02:18:36;;;;;;;0.70;0.40;;;20.90;47.40;;;;;;6246000;28;20025;-76
2021/05/05 02:21:36;;;;;;;0.80;0.60;;;20.90;47.40;;;;;;6245867;28;20112;-76
2021/05/05 02:24:37;;;;;;;0.32;0.30;;;20.90;47.40;;;;;;6246123;28;20064;-76
2021/05/05 02:27:39;;;;;;;0.77;0.45;;;20.90;47.40;;;;;;6245836;28;20350;-74
2021/05/05 02:30:40;;;;;;;0.43;0.38;;;20.90;47.40;;;;;;6245784;28;20373;-77
2021/05/05 02:33:40;;;;;;;0.52;0.32;;;20.90;47.50;;;;;;6245449;28;20037;-76
2021/05/05 02:36:41;;;;;;;0.85;0.50;;;20.90;47.30;;;;;;6246053;28;20432;-76
2021/05/05 02:39:43;;;;;;;0.90;0.60;;;20.90;47.40;;;;;;6245592;28;20022;-76
2021/05/05 02:42:44;;;;;;;0.50;0.32;;;20.90;47.40;;;;;;6245725;28;20025;-76
2021/05/05 02:45:44;;;;;;;1.23;0.57;;;20.90;47.40;;;;;;6244421;28;20444;-76
2021/05/05 02:48:45;;;;;;;1.33;0.40;;;20.90;47.40;;;;;;6245073;28;20392;-76
2021/05/05 02:51:46;;;;;;;0.68;0.40;;;20.90;47.40;;;;;;6245831;28;20025;-76
2021/05/05 02:54:46;;;;;;;0.85;0.40;;;20.90;47.40;;;;;;6245358;28;20029;-77
2021/05/05 02:57:47;;;;;;;0.50;0.40;;;20.90;47.40;;;;;;6245575;28;20025;-76
2021/05/05 03:00:47;;;;;;;0.98;0.60;;;20.90;47.40;;;;;;6245113;28;20412;-77
2021/05/05 03:03:48;;;;;;;0.50;0.30;;;20.90;47.40;;;;;;6244874;28;20033;-76
2021/05/05 03:06:48;;;;;;;0.80;0.43;;;20.90;47.40;;;;;;6245217;28;20029;-76
2021/05/05 03:09:49;;;;;;;0.50;0.40;;;20.90;47.40;;;;;;6244920;28;20533;-76
2021/05/05 03:12:49;;;;;;;0.77;0.40;;;20.90;47.40;;;;;;6244160;28;20388;-76
2021/05/05 03:15:50;;;;;;;0.50;0.40;;;20.80;47.30;;;;;;6244749;28;20101;-76
2021/05/05 03:18:51;;;;;;;0.40;0.35;;;20.90;47.40;;;;;;6244789;28;20430;-76
2021/05/05 03:21:54;;;;;;;0.73;0.50;;;20.90;47.40;;;;;;6243695;28;20075;-77
2021/05/05 03:24:54;;;;;;;1.17;0.50;;;20.80;47.30;;;;;;6244645;28;20407;-76
2021/05/05 03:27:55;;;;;;;0.45;0.32;;;20.90;47.40;;;;;;6244710;28;20017;-76
2021/05/05 03:30:55;;;;;;;0.70;0.50;;;20.90;47.40;;;;;;6244192;28;20093;-76
2021/05/05 03:33:56;;;;;;;1.00;0.60;;;20.90;47.40;;;;;;6244001;28;20041;-76
2021/05/05 03:36:56;;;;;;;0.95;0.40;;;20.90;47.40;;;;;;6244242;28;20575;-76
2021/05/05 03:39:57;;;;;;;0.95;0.60;;;20.80;47.30;;;;;;6243469;28;20032;-76
2021/05/05 03:42:57;;;;;;;0.57;0.35;;;20.80;47.30;;;;;;6244680;28;20056;-76
2021/05/05 03:45:58;;;;;;;0.40;0.40;;;20.90;47.30;;;;;;6243251;28;20101;-76
2021/05/05 03:48:59;;;;;;;0.68;0.40;;;20.80;47.30;;;;;;6243470;28;20117;-76
2021/05/05 03:52:00;;;;;;;0.40;0.40;;;20.90;47.40;;;;;;6244220;28;20061;-76
2021/05/05 03:55:00;;;;;;;0.22;0.20;;;20.90;47.40;;;;;;6243004;28;20036;-76
2021/05/05 03:58:01;;;;;;;0.43;0.30;;;20.80;47.20;;;;;;6244574;28;20033;-76
2021/05/05 04:01:02;;;;;;;0.63;0.50;;;20.80;47.30;;;;;;6244371;28;20018;-76
2021/05/05 04:04:03;;;;;;;0.35;0.30;;;20.80;47.30;;;;;;6243648;28;20041;-76
2021/05/05 04:07:04;;;;;;;0.70;0.40;;;20.80;47.20;;;;;;6242382;28;20218;-76
2021/05/05 04:10:08;;;;;;;0.57;0.40;;;20.80;47.10;;;;;;6243540;28;20096;-76
2021/05/05 04:13:09;;;;;;;0.70;0.50;;;20.90;47.30;;;;;;6242602;28;20330;-76
2021/05/05 04:16:09;;;;;;;0.32;0.30;;;20.80;47.30;;;;;;6242073;28;20033;-77
2021/05/05 04:19:10;;;;;;;1.95;0.30;;;20.90;47.40;;;;;;6243465;28;20049;-77
2021/05/05 04:22:12;;;;;;;0.90;0.50;;;20.80;47.10;;;;;;6242156;28;20530;-76
2021/05/05 04:25:14;;;;;;;0.38;0.28;;;20.80;47.20;;;;;;6243000;28;20041;-77
2021/05/05 04:28:15;;;;;;;0.60;0.40;;;20.80;47.20;;;;;;6241836;28;20112;-77
2021/05/05 04:31:16;;;;;;;0.43;0.32;;;20.90;47.20;;;;;;6248252;28;20053;-76
2021/05/05 04:34:16;;;;;;;0.98;0.60;;;20.90;47.20;;;;;;6246725;28;20060;-76
2021/05/05 04:37:17;;;;;;;0.70;0.40;;;20.90;47.20;;;;;;6246797;28;20504;-76
2021/05/05 04:40:17;;;;;;;0.40;0.40;;;20.80;47.10;;;;;;6246144;28;20376;-76
2021/05/05 04:43:18;;;;;;;1.23;0.40;;;20.80;47.30;;;;;;6247837;28;20065;-76
2021/05/05 04:46:19;;;;;;;1.13;0.40;;;20.90;47.20;;;;;;6246547;28;20477;-76
2021/05/05 04:49:19;;;;;;;1.17;0.50;;;20.80;47.00;;;;;;6246880;28;20025;-77
2021/05/05 04:52:20;;;;;;;1.85;0.40;;;20.90;47.10;;;;;;6246413;28;20022;-76
2021/05/05 04:55:21;;;;;;;0.47;0.30;;;20.90;47.10;;;;;;6247498;28;20070;-76
2021/05/05 04:58:21;;;;;;;0.43;0.43;;;20.90;47.10;;;;;;6246451;28;20091;-76
2021/05/05 05:01:23;;;;;;;0.45;0.40;;;20.90;47.20;;;;;;6241640;28;20030;-77
2021/05/05 05:04:23;;;;;;;0.30;0.30;;;20.80;47.10;;;;;;6247504;28;20505;-77
2021/05/05 05:07:24;;;;;;;0.95;0.45;;;20.80;47.10;;;;;;6247186;28;20026;-76
2021/05/05 05:10:25;;;;;;;0.65;0.40;;;20.90;47.10;;;;;;6248016;28;20026;-76
2021/05/05 05:13:25;;;;;;;0.52;0.28;;;20.90;47.00;;;;;;6247582;28;20021;-76
2021/05/05 05:16:26;;;;;;;0.95;0.40;;;20.90;46.90;;;;;;6247131;28;20028;-76
2021/05/05 05:19:26;;;;;;;0.47;0.32;;;20.90;47.00;;;;;;6245956;28;20498;-76
2021/05/05 05:22:27;;;;;;;1.10;0.40;;;20.90;47.10;;;;;;6245691;28;20503;-77
2021/05/05 05:25:28;;;;;;;0.60;0.32;;;20.90;47.00;;;;;;6247881;28;20034;-76
2021/05/05 05:28:28;;;;;;;3.80;0.68;;;20.90;46.80;;;;;;6247091;28;20040;-76
2021/05/05 05:31:29;;;;;;;0.50;0.38;;;20.90;47.00;;;;;;6246871;28;20026;-76
2021/05/05 05:34:29;;;;;;;0.77;0.50;;;20.90;46.90;;;;;;6247003;28;20461;-76
2021/05/05 05:37:30;;;;;;;0.85;0.40;;;20.90;46.90;;;;;;6246838;28;20099;-76
2021/05/05 05:40:30;;;;;;;0.80;0.50;;;20.90;47.00;;;;;;6246932;28;20100;-77
2021/05/05 05:43:31;;;;;;;1.40;0.70;;;20.90;47.00;;;;;;6245195;28;20117;-76
2021/05/05 05:46:32;;;;;;;0.70;0.45;;;20.90;46.90;;;;;;6247141;28;20022;-76
2021/05/05 05:49:32;;;;;;;1.20;0.50;;;20.90;47.10;;;;;;6246664;28;20105;-76
2021/05/05 05:52:33;;;;;;;0.95;0.47;;;20.90;46.80;;;;;;6246118;28;20022;-77
2021/05/05 05:55:35;;;;;;;2.08;0.57;;;20.90;46.90;;;;;;6246592;28;20025;-77
2021/05/05 05:58:36;;;;;;;1.02;0.50;;;20.90;46.90;;;;;;6245950;28;20022;-76
2021/05/05 06:01:36;;;;;;;0.98;0.50;;;20.90;47.00;;;;;;6237790;28;20026;-76
2021/05/05 06:04:37;;;;;;;0.88;0.50;;;20.90;46.90;;;;;;6259665;28;20488;-76
2021/05/05 06:07:37;;;;;;;0.88;0.50;;;20.90;46.90;;;;;;6249094;28;20026;-76
2021/05/05 06:10:38;;;;;;;0.40;0.30;;;20.90;46.80;;;;;;6247969;28;20021;-77
2021/05/05 06:13:39;;;;;;;1.13;0.40;;;20.90;46.90;;;;;;6254099;28;20582;-76
2021/05/05 06:16:39;;;;;;;2.10;0.55;;;20.90;46.80;;;;;;6246458;28;20034;-76
2021/05/05 06:19:40;;;;;;;1.98;0.60;;;20.90;47.00;;;;;;6246272;28;20026;-76
2021/05/05 06:22:40;;;;;;;5.90;0.55;;;20.90;46.90;;;;;;6250537;28;20029;-76
2021/05/05 06:25:41;;;;;;;1.25;0.50;;;20.90;47.00;;;;;;6247269;28;20037;-76
2021/05/05 06:28:41;;;;;;;1.35;0.50;;;20.90;46.90;;;;;;6246624;28;20071;-77
2021/05/05 06:31:42;;;;;;;1.27;0.57;;;20.90;46.90;;;;;;6244769;28;20057;-76
2021/05/05 06:34:42;;;;;;;1.63;0.50;;;20.90;47.20;;;;;;6245781;28;20060;-76
2021/05/05 06:37:43;;;;;;;0.98;0.50;;;20.90;47.10;;;;;;6246855;28;20045;-77
2021/05/05 06:40:43;;;;;;;1.02;0.40;;;20.90;47.10;;;;;;6244709;28;20389;-77
2021/05/05 06:43:44;;;;;;;0.50;0.40;;;20.90;47.10;;;;;;6245735;28;20022;-76
2021/05/05 06:46:45;;;;;;;1.38;0.55;;;20.90;47.10;;;;;;6244975;28;20079;-76
2021/05/05 06:49:45;;;;;;;0.93;0.50;;;20.90;47.20;;;;;;6245772;28;20033;-76
2021/05/05 06:52:46;;;;;;;1.42;0.45;;;20.90;47.20;;;;;;6243837;28;20028;-75
2021/05/05 06:55:47;;;;;;;1.02;0.40;;;20.90;47.10;;;;;;6245915;28;20013;-76
2021/05/05 06:58:47;;;;;;;1.65;0.70;;;20.90;47.20;;;;;;6246020;28;20025;-76
2021/05/05 07:01:48;;;;;;;0.75;0.40;;;20.90;47.20;;;;;;6245094;28;20022;-76
2021/05/05 07:04:49;;;;;;;5.35;0.80;;;20.90;47.90;;;;;;6244839;28;20477;-76
2021/05/05 07:07:50;;;;;;;0.47;0.40;;;20.90;47.20;;;;;;6245447;28;20468;-76
2021/05/05 07:10:50;;;;;;;1.50;0.65;;;20.90;47.20;;;;;;6243979;28;20172;-76
2021/05/05 07:13:51;;;;;;;1.52;0.57;;;20.90;47.20;;;;;;6243618;28;20033;-76
2021/05/05 07:16:51;;;;;;;1.05;0.50;;;20.90;47.20;;;;;;6246434;28;20030;-77
2021/05/05 07:19:53;;;;;;;0.77;0.40;;;20.90;47.20;;;;;;6240478;28;20033;-77
2021/05/05 07:22:54;;;;;;;0.93;0.50;;;20.90;47.90;;;;;;6244162;28;20029;-76
2021/05/05 07:25:54;;;;;;;0.77;0.50;;;20.90;47.30;;;;;;6244488;28;20052;-76
2021/05/05 07:28:56;;;;;;;2.97;0.90;;;20.90;47.30;;;;;;6244866;28;20025;-77
2021/05/05 07:31:56;;;;;;;2.03;0.57;;;20.90;47.30;;;;;;6243822;28;20067;-77
2021/05/05 07:34:58;;;;;;;1.38;0.60;;;20.90;47.30;;;;;;6244003;28;20049;-76
2021/05/05 07:38:13;;;;;;;1.52;0.80;;;20.90;47.20;;;;;;6245779;28;20025;-76
2021/05/05 07:48:32;;;;;;;3.63;1.00;;;20.90;47.20;;;;;;6244698;28;20037;-77
2021/05/05 07:51:29;;;;;;;1.95;1.02;;;20.90;47.20;;;;;;6243584;28;20037;-76
2021/05/05 07:54:30;;;;;;;2.45;1.25;;;20.90;47.10;;;;;;6239815;28;20025;-76
2021/05/05 07:57:31;;;;;;;3.95;1.50;;;20.90;47.10;;;;;;6245021;28;20029;-77
2021/05/05 08:00:32;;;;;;;3.42;2.00;;;20.90;47.10;;;;;;6245352;28;20119;-76
2021/05/05 08:03:32;;;;;;;8.20;4.38;;;20.90;47.10;;;;;;6247903;28;20059;-77
2021/05/05 08:06:34;;;;;;;4.20;2.70;;;20.90;47.00;;;;;;6249871;28;20466;-77
2021/05/05 08:09:34;;;;;;;5.38;3.13;;;20.90;47.00;;;;;;6249239;28;20053;-77
2021/05/05 08:12:35;;;;;;;5.05;2.88;;;20.90;47.20;;;;;;6249416;28;20025;-77
2021/05/05 08:15:36;;;;;;;6.00;3.10;;;20.90;47.20;;;;;;6249695;28;20384;-76
2021/05/05 08:18:37;;;;;;;5.82;3.10;;;20.90;47.10;;;;;;6249566;28;20029;-75
2021/05/05 08:21:38;;;;;;;4.53;2.88;;;21.00;47.20;;;;;;6249576;28;20461;-77
2021/05/05 08:24:38;;;;;;;5.82;3.00;;;21.00;47.10;;;;;;6247354;28;20132;-76
2021/05/05 08:27:40;;;;;;;5.88;3.30;;;20.90;47.00;;;;;;6248498;28;20048;-77
2021/05/05 08:30:41;;;;;;;4.53;2.55;;;20.90;47.00;;;;;;6249001;28;20107;-77
2021/05/05 08:33:42;;;;;;;3.25;2.72;;;20.90;47.00;;;;;;6247711;28;20087;-76
2021/05/05 08:36:42;;;;;;;4.68;2.67;;;20.90;47.00;;;;;;6247906;28;20022;-77
2021/05/05 08:39:43;;;;;;;4.50;2.70;;;20.90;47.00;;;;;;6249399;28;20052;-77
2021/05/05 08:42:44;;;;;;;4.78;2.58;;;21.00;47.10;;;;;;6248656;28;20030;-77
2021/05/05 08:45:45;;;;;;;4.43;2.28;;;20.90;47.00;;;;;;6249271;28;20037;-77
2021/05/05 08:48:48;;;;;;;5.15;2.33;;;20.90;47.00;;;;;;6249469;28;20448;-76
2021/05/05 08:51:50;;;;;;;3.35;2.30;;;21.00;47.00;;;;;;6247314;28;20034;-76
2021/05/05 08:54:50;;;;;;;3.80;2.78;;;20.90;46.90;;;;;;6248464;28;20441;-76
2021/05/05 08:57:51;;;;;;;7.70;2.78;;;20.90;46.90;;;;;;6247086;28;20022;-77
2021/05/05 09:00:52;;;;;;;7.55;2.92;;;21.00;46.90;;;;;;6248138;28;20037;-77
2021/05/05 09:03:53;;;;;;;5.80;2.30;;;21.00;46.90;;;;;;6248210;28;20495;-76
2021/05/05 09:06:54;;;;;;;4.95;2.47;;;21.00;46.90;;;;;;6247462;28;20048;-77
2021/05/05 09:10:01;;;;;;;4.70;2.55;;;21.00;46.90;;;;;;6248227;28;20029;-77
2021/05/05 09:13:01;;;;;;;7.72;3.80;;;21.00;46.80;;;;;;6240466;28;20443;-77
2021/05/05 09:16:06;;;;;;;37.45;21.17;;;21.00;46.70;;;;;;6246763;28;20026;-76
2021/05/05 09:19:09;;;;;;;;;;;21.00;46.70;;;;;;6248491;28;20031;-77
2021/05/05 09:22:09;;;;;;;11.00;7.32;;;21.00;46.70;;;;;;6219872;28;19963;-77
2021/05/05 09:25:13;;;;;;;14.18;8.45;;;21.00;46.70;;;;;;6205870;28;20042;-77
2021/05/05 09:28:17;;;;;;;13.85;8.75;;;21.00;46.80;;;;;;6217271;28;20096;-77
2021/05/05 09:31:20;;;;;;;21.33;12.90;;;21.00;46.80;;;;;;6214434;28;20085;-77
2021/05/05 09:34:25;;;;;;;17.50;11.10;;;21.00;46.70;;;;;;6218979;28;20057;-77
2021/05/05 09:37:26;;;;;;;19.05;12.23;;;21.00;46.80;;;;;;6203236;28;20546;-74
2021/05/05 09:40:27;;;;;;;18.30;11.98;;;21.00;46.80;;;;;;6212008;28;20026;-77
2021/05/05 09:43:35;;;;;;;16.88;11.85;;;21.00;46.70;;;;;;6216280;28;20101;-77
2021/05/05 09:46:44;;;;;;;19.95;11.50;;;21.00;46.80;;;;;;6199046;28;20065;-77
2021/05/05 09:49:46;;;;;;;18.63;10.68;;;21.00;46.70;;;;;;6219833;28;20507;-77
2021/05/05 09:52:49;;;;;;;16.30;11.25;;;21.00;46.80;;;;;;6228617;28;20506;-76
2021/05/05 09:55:52;;;;;;;18.52;10.77;;;21.00;46.70;;;;;;6245593;28;20044;-77
2021/05/05 09:58:59;;;;;;;16.00;10.70;;;21.00;46.80;;;;;;6245775;28;20025;-76
2021/05/05 10:02:01;;;;;;;15.63;9.25;;;21.00;46.80;;;;;;6246258;28;20029;-77
2021/05/05 10:05:10;;;;;;;13.60;9.30;;;21.00;46.80;;;;;;6246361;28;20037;-77
2021/05/05 10:08:11;;;;;;;13.95;9.80;;;21.00;46.70;;;;;;6245737;28;20476;-76
2021/05/05 10:11:12;;;;;;;15.25;9.50;;;21.00;46.80;;;;;;6246892;28;20030;-77
2021/05/05 10:14:17;;;;;;;14.18;9.55;;;21.00;46.80;;;;;;6245717;28;20498;-77
2021/05/05 10:17:18;;;;;;;17.17;9.88;;;21.00;46.80;;;;;;6245128;28;20459;-77
2021/05/05 10:20:26;;;;;;;15.18;9.60;;;21.00;46.80;;;;;;6245990;28;20025;-77
2021/05/05 10:23:26;;;;;;;12.23;8.50;;;21.00;46.80;;;;;;6240925;28;20086;-77
2021/05/05 10:26:28;;;;;;;11.73;8.00;;;21.00;46.80;;;;;;6243565;28;20022;-77
2021/05/05 10:29:32;;;;;;;14.13;8.63;;;21.00;46.80;;;;;;6246488;28;20025;-77
2021/05/05 10:32:33;;;;;;;12.95;8.63;;;21.00;46.80;;;;;;6245855;28;20178;-78
2021/05/05 10:35:34;;;;;;;12.50;7.80;;;21.00;46.80;;;;;;6245627;28;20053;-77
2021/05/05 10:38:36;;;;;;;11.05;7.53;;;21.00;46.80;;;;;;6241437;28;20061;-76
2021/05/05 10:41:40;;;;;;;12.60;8.38;;;21.00;46.80;;;;;;6246020;28;20535;-77
2021/05/05 10:44:43;;;;;;;12.68;7.43;;;21.00;46.80;;;;;;6245067;28;20033;-77
2021/05/05 10:48:01;;;;;;;11.35;8.05;;;21.00;46.90;;;;;;6246126;28;20132;-76
2021/05/05 10:51:01;;;;;;;12.68;8.75;;;21.00;46.80;;;;;;6245797;28;20024;-77
2021/05/05 10:54:02;;;;;;;14.02;9.20;;;21.00;46.80;;;;;;6244389;28;20061;-77
2021/05/05 10:57:12;;;;;;;14.10;9.48;;;20.90;46.80;;;;;;6245013;28;20498;-77
2021/05/05 11:00:14;;;;;;;16.83;10.65;;;21.00;46.80;;;;;;6245766;28;20488;-77
2021/05/05 11:03:16;;;;;;;15.57;10.43;;;21.00;46.80;;;;;;6243592;28;20591;-77
2021/05/05 11:06:29;;;;;;;16.65;11.20;;;21.00;46.80;;;;;;6243933;28;20036;-76
2021/05/05 11:09:40;;;;;;;15.20;10.88;;;21.00;46.80;;;;;;6244230;28;20048;-77
2021/05/05 11:12:41;;;;;;;16.42;10.00;;;21.00;46.80;;;;;;6245063;28;20496;-77
2021/05/05 11:15:42;;;;;;;14.15;10.15;;;21.00;46.90;;;;;;6243238;28;20148;-77
2021/05/05 11:18:43;;;;;;;17.88;10.48;;;21.00;46.90;;;;;;6247711;28;20245;-77
2021/05/05 11:21:44;;;;;;;15.60;11.25;;;21.00;46.90;;;;;;6244463;28;20122;-78
2021/05/05 11:24:49;;;;;;;13.90;10.07;;;21.00;46.80;;;;;;6244467;28;20081;-77
2021/05/05 11:27:51;;;;;;;16.58;10.05;;;21.00;46.90;;;;;;6243858;28;20057;-76
2021/05/05 11:30:53;;;;;;;14.57;9.52;;;21.00;46.80;;;;;;6244881;28;20025;-75
2021/05/05 11:33:59;;;;;;;12.95;9.40;;;21.00;46.80;;;;;;6243421;28;20411;-76
2021/05/05 11:37:13;;;;;;;13.57;9.35;;;21.00;46.80;;;;;;6243518;28;20017;-76
2021/05/05 11:40:14;;;;;;;14.48;9.43;;;21.00;46.80;;;;;;6243223;28;20033;-76
2021/05/05 11:43:26;;;;;;;14.20;9.52;;;21.00;46.90;;;;;;6243121;28;20036;-76
2021/05/05 11:46:26;;;;;;;11.75;8.50;;;21.00;46.80;;;;;;6241970;28;20542;-76
2021/05/05 11:49:32;;;;;;;11.73;8.38;;;21.00;46.90;;;;;;6242997;28;20030;-76
2021/05/05 11:52:39;;;;;;;13.23;8.75;;;21.00;46.90;;;;;;6244116;28;20025;-76
2021/05/05 11:55:40;;;;;;;12.73;8.75;;;21.00;46.90;;;;;;6243019;28;20396;-75
2021/05/05 11:58:40;;;;;;;12.35;8.27;;;21.00;46.90;;;;;;6239263;28;20022;-76
2021/05/05 12:01:41;;;;;;;12.05;8.43;;;21.00;46.90;;;;;;6237638;28;20018;-76
2021/05/05 12:04:42;;;;;;;15.80;7.30;;;21.00;46.90;;;;;;6244155;28;20045;-75
2021/05/05 12:07:43;;;;;;;11.20;8.00;;;21.00;46.90;;;;;;6244189;28;20032;-76
2021/05/05 12:11:03;;;;;;;10.73;7.43;;;21.00;46.90;;;;;;6242637;28;20026;-76
2021/05/05 12:14:04;;;;;;;11.68;7.55;;;21.00;47.00;;;;;;6244197;28;20425;-76
2021/05/05 12:17:18;;;;;;;11.70;7.30;;;21.00;47.00;;;;;;6244244;28;20025;-76
2021/05/05 12:20:19;;;;;;;12.15;7.43;;;21.00;46.90;;;;;;6244700;28;20060;-76
2021/05/05 12:23:20;;;;;;;10.15;7.25;;;21.00;46.90;;;;;;6244013;28;20467;-77
2021/05/05 12:26:27;;;;;;;9.63;6.18;;;21.00;46.90;;;;;;6242436;28;20037;-76
2021/05/05 12:29:28;;;;;;;13.70;6.30;;;21.00;47.10;;;;;;6241370;28;20072;-75
2021/05/05 12:32:46;;;;;;;11.50;6.18;;;21.00;46.60;;;;;;6242503;28;20030;-76
2021/05/05 12:35:47;;;;;;;13.82;6.80;;;21.10;47.00;;;;;;6242271;28;20450;-76
2021/05/05 12:38:56;;;;;;;9.05;6.15;;;21.00;46.90;;;;;;6243640;28;20043;-76
2021/05/05 12:41:57;;;;;;;12.55;6.30;;;21.00;46.80;;;;;;6242327;28;20025;-75
2021/05/05 12:45:07;;;;;;;9.88;6.25;;;21.00;46.80;;;;;;6240273;28;20061;-76
2021/05/05 12:48:08;;;;;;;10.40;5.07;;;21.00;46.70;;;;;;6242843;28;20029;-76
2021/05/05 12:51:14;;;;;;;12.27;5.45;;;21.10;46.80;;;;;;6245551;28;20423;-78
2021/05/05 12:54:27;;;;;;;14.07;5.18;;;21.10;46.50;;;;;;6247436;28;20040;-78
2021/05/05 12:57:28;;;;;;;7.35;5.07;;;21.10;47.00;;;;;;6243211;28;20503;-76
2021/05/05 13:00:29;;;;;;;9.57;5.15;;;21.10;46.90;;;;;;6247463;28;20033;-76
2021/05/05 13:03:39;;;;;;;9.25;5.38;;;21.10;46.90;;;;;;6246988;28;20086;-76
2021/05/05 13:06:48;;;;;;;8.65;5.22;;;21.10;46.90;;;;;;6244912;28;20112;-76
2021/05/05 13:10:11;;;;;;;7.80;4.95;;;21.10;46.90;;;;;;6243285;28;20484;-75
2021/05/05 13:13:16;;;;;;;8.35;4.90;;;21.10;46.90;;;;;;6240292;28;20076;-77
2021/05/05 13:16:37;;;;;;;9.13;5.38;;;21.00;46.80;;;;;;6245780;28;20021;-76
2021/05/05 13:33:26;;;;;;;8.00;5.10;;;21.00;46.90;;;;;;6243874;28;20231;-77
2021/05/05 13:36:45;;;;;;;8.25;4.53;;;21.00;46.80;;;;;;6247650;28;20060;-76
2021/05/05 13:39:46;;;;;;;6.68;4.28;;;21.00;46.80;;;;;;6247544;28;20101;-77
2021/05/05 13:42:47;;;;;;;7.90;4.20;;;21.00;46.90;;;;;;6246719;28;20025;-77
2021/05/05 13:45:57;;;;;;;6.20;4.28;;;21.00;46.80;;;;;;6220548;28;20513;-76
2021/05/05 13:49:08;;;;;;;5.22;3.47;;;21.00;47.60;;;;;;6203327;28;20045;-77
2021/05/05 13:52:10;;;;;;;5.85;3.70;;;21.00;46.90;;;;;;6217371;28;20030;-78
2021/05/05 13:55:11;;;;;;;5.82;3.70;;;21.00;46.90;;;;;;6205683;28;20073;-77
2021/05/05 13:58:12;;;;;;;7.63;3.60;;;21.00;47.00;;;;;;6221158;28;20061;-81
2021/05/05 14:01:13;;;;;;;6.00;3.05;;;21.00;45.30;;;;;;6219335;28;20475;-78
2021/05/05 14:04:13;;;;;;;4.20;2.80;;;21.00;43.40;;;;;;6220689;28;20428;-77
2021/05/05 14:07:14;;;;;;;6.38;2.70;;;21.00;42.60;;;;;;6199488;28;20100;-77
2021/05/05 14:10:15;;;;;;;7.72;2.25;;;21.00;41.60;;;;;;6219921;28;20133;-77
2021/05/05 14:13:15;;;;;;;3.97;2.22;;;21.00;41.40;;;;;;6219774;28;20500;-77
2021/05/05 14:16:18;;;;;;;8.23;2.22;;;21.00;39.60;;;;;;6229006;28;20537;-77
2021/05/05 14:19:18;;;;;;;4.43;2.20;;;21.00;42.60;;;;;;6246548;28;20040;-78
2021/05/05 14:22:19;;;;;;;4.78;1.90;;;21.00;42.50;;;;;;6246349;28;20034;-77
2021/05/05 14:25:20;;;;;;;5.72;2.28;;;21.00;43.50;;;;;;6247697;28;20121;-77
2021/05/05 14:28:20;;;;;;;4.07;2.38;;;21.00;43.60;;;;;;6248895;28;20440;-77
2021/05/05 14:31:21;;;;;;;7.93;2.30;;;21.00;43.90;;;;;;6245743;28;20300;-77
2021/05/05 14:34:22;;;;;;;4.05;2.00;;;21.00;44.10;;;;;;6247548;28;20046;-77
2021/05/05 14:37:23;;;;;;;7.15;2.00;;;21.00;43.90;;;;;;6247397;28;20028;-76
2021/05/05 14:40:24;;;;;;;9.13;1.95;;;21.00;44.30;;;;;;6246407;28;20417;-76
2021/05/05 14:43:33;;;;;;;3.17;2.03;;;21.00;44.40;;;;;;6242056;28;20377;-76
2021/05/05 14:49:41;;;;;;;5.93;2.05;;;21.00;44.60;;;;;;6245248;28;20036;-78
2021/05/05 14:52:41;;;;;;;4.07;1.90;;;21.00;44.60;;;;;;6243724;28;20436;-77
2021/05/05 14:55:42;;;;;;;5.68;1.80;;;21.00;44.90;;;;;;6245664;28;20024;-77
2021/05/05 14:58:46;;;;;;;4.18;2.10;;;20.90;45.50;;;;;;6245646;28;20051;-78
2021/05/05 15:01:47;;;;;;;12.93;2.17;;;20.80;45.80;;;;;;6247334;28;20029;-77
2021/05/05 15:04:47;;;;;;;12.07;4.55;;;20.80;42.80;;;;;;6246069;28;20029;-77
2021/05/05 15:07:50;;;;;;;8.90;2.70;;;20.90;42.10;;;;;;6247760;28;20030;-77
2021/05/05 15:14:39;;;;;;;13.68;2.90;;;21.00;42.40;;;;;;6244710;28;20081;-76
2021/05/05 15:34:10;;;;;;;11.88;4.05;;;20.90;42.80;;;;;;6241718;28;20094;-77
2021/05/05 15:37:16;;;;;;;18.80;3.95;;;21.00;43.30;;;;;;6243738;28;20037;-76
2021/05/05 15:40:32;;;;;;;24.05;3.88;;;21.00;43.30;;;;;;6244963;28;20029;-77
2021/05/05 15:46:51;;;;;;;12.15;3.30;;;21.00;43.50;;;;;;6246040;28;20396;-76
2021/05/05 15:49:57;;;;;;;13.57;3.45;;;21.10;43.80;;;;;;6244901;28;20053;-76
2021/05/05 15:53:19;;;;;;;16.73;3.42;;;21.10;43.70;;;;;;6240413;28;20045;-76
2021/05/05 15:56:36;;;;;;;11.70;2.90;;;21.10;43.60;;;;;;6244855;28;20033;-76
2021/05/05 16:00:04;;;;;;;7.75;3.17;;;21.10;43.70;;;;;;6242809;28;20041;-76
2021/05/05 16:15:37;;;;;;;10.13;2.88;;;21.10;44.10;;;;;;6241358;28;20068;-77
2021/05/05 16:18:55;;;;;;;11.45;2.70;;;21.10;44.10;;;;;;6241772;28;20092;-77
2021/05/05 16:22:10;;;;;;;8.05;2.67;;;21.10;44.10;;;;;;6240998;28;20032;-76
2021/05/05 16:28:30;;;;;;;6.70;2.50;;;21.10;44.20;;;;;;6247239;28;19912;-76
2021/05/05 16:51:02;;;;;;;4.10;2.03;;;21.10;44.90;;;;;;6245785;28;20037;-77
2021/05/05 16:54:22;;;;;;;4.97;2.28;;;21.10;44.90;;;;;;6241476;28;20033;-77
2021/05/05 17:10:28;;;;;;;3.17;1.92;;;21.10;45.30;;;;;;6245484;28;20400;-77
2021/05/05 17:13:29;;;;;;;8.52;2.05;;;21.10;45.30;;;;;;6245226;28;20398;-77
2021/05/05 17:16:30;;;;;;;6.55;1.92;;;21.10;45.40;;;;;;6242958;28;20199;-77
2021/05/05 17:19:38;;;;;;;6.88;1.90;;;21.00;45.30;;;;;;6245804;28;20408;-77
2021/05/05 17:22:45;;;;;;;5.40;1.65;;;21.00;45.20;;;;;;6244012;28;20108;-77